Time;durP1;ratioP1;P1;durP2;ratioP2;P2;SDS_P1;SDS_P2;PMS_P1;PMS_P2;Temp;Humidity;BMP_temperature;BMP_pressure;BME280_temperature;BME280_humidity;BME280_pressure;Samples;Min_cycle;Max_cycle;Signal;HPM_P1;HPM_P2
2023/08/10 00:00:39;;;;;;;7.05;1.50;;;;;;;14.79;100.00;101685.53;6275359;28;20057;-70
2023/08/10 00:03:41;;;;;;;2.58;1.33;;;;;;;14.76;100.00;101684.84;6275265;28;20068;-70
2023/08/10 00:06:42;;;;;;;2.90;1.30;;;;;;;14.77;100.00;101683.91;6275439;28;20049;-70
2023/08/10 00:09:43;;;;;;;2.25;1.67;;;;;;;14.81;100.00;101688.09;6275150;28;20056;-70
2023/08/10 00:12:46;;;;;;;3.13;1.10;;;;;;;14.70;100.00;101686.03;6275028;28;20064;-70
2023/08/10 00:15:48;;;;;;;3.55;1.85;;;;;;;14.65;100.00;101688.09;6274941;28;20052;-70
2023/08/10 00:18:49;;;;;;;3.60;1.77;;;;;;;14.66;100.00;101692.44;6274949;28;20349;-70
2023/08/10 00:21:50;;;;;;;4.35;1.40;;;;;;;14.65;100.00;101696.03;6275045;28;20049;-70
2023/08/10 00:24:52;;;;;;;3.40;1.70;;;;;;;14.58;100.00;101695.53;6277277;28;20053;-70
2023/08/10 00:27:55;;;;;;;4.25;1.40;;;;;;;14.54;100.00;101699.28;6280041;28;20733;-70
2023/08/10 00:30:57;;;;;;;1.95;1.35;;;;;;;14.42;100.00;101694.59;6280220;28;20057;-70
2023/08/10 00:33:58;;;;;;;2.05;1.40;;;;;;;14.46;100.00;101696.16;6279565;28;20049;-70
2023/08/10 00:37:00;;;;;;;1.73;1.02;;;;;;;14.40;100.00;101697.34;6280022;28;20063;-70
2023/08/10 00:40:02;;;;;;;3.60;1.92;;;;;;;14.30;100.00;101695.25;6279890;28;20049;-70
2023/08/10 00:43:05;;;;;;;3.60;1.10;;;;;;;14.31;100.00;101697.00;6279533;28;20140;-70
2023/08/10 00:46:06;;;;;;;7.35;1.65;;;;;;;14.30;100.00;101695.25;6279686;28;20052;-70
2023/08/10 00:49:08;;;;;;;5.07;1.45;;;;;;;14.32;100.00;101706.63;6279487;28;20058;-69
2023/08/10 00:52:09;;;;;;;7.45;1.65;;;;;;;14.31;100.00;101708.41;6270011;28;20061;-69
2023/08/10 00:55:11;;;;;;;2.85;1.55;;;;;;;14.33;100.00;101708.31;6270060;28;20049;-69
2023/08/10 00:58:14;;;;;;;4.20;1.25;;;;;;;14.24;100.00;101711.47;6279512;28;20060;-69
2023/08/10 01:01:16;;;;;;;3.22;1.52;;;;;;;14.23;100.00;101713.25;6279249;28;20433;-69
2023/08/10 01:04:17;;;;;;;4.40;1.80;;;;;;;14.16;100.00;101719.78;6279139;28;20044;-69
2023/08/10 01:07:23;;;;;;;7.78;1.45;;;;;;;14.10;100.00;101718.31;6279103;28;20437;-69
2023/08/10 01:10:34;;;;;;;1.98;1.30;;;;;;;14.04;100.00;101712.53;6279356;28;20056;-70
2023/08/10 01:13:43;;;;;;;1.60;1.23;;;;;;;14.02;100.00;101717.03;6297194;22;20115;-67
2023/08/10 01:16:44;;;;;;;4.78;2.00;;;;;;;13.94;100.00;101723.56;6278610;28;20045;-68
2023/08/10 01:19:49;;;;;;;2.92;1.00;;;;;;;13.90;100.00;101721.16;6284361;28;20045;-67
2023/08/10 01:22:56;;;;;;;3.35;1.10;;;;;;;13.88;100.00;101721.22;6269551;28;20053;-67
2023/08/10 01:26:00;;;;;;;5.97;1.42;;;;;;;13.88;100.00;101723.03;6253851;28;20053;-67
2023/08/10 01:29:02;;;;;;;2.35;1.30;;;;;;;13.89;100.00;101722.06;6254163;28;20041;-67
2023/08/10 01:32:04;;;;;;;4.45;1.40;;;;;;;13.82;100.00;101724.19;6253895;28;20056;-67
2023/08/10 01:35:06;;;;;;;7.25;1.70;;;;;;;13.81;100.00;101727.78;6270775;28;20059;-67
2023/08/10 01:38:08;;;;;;;2.70;1.27;;;;;;;13.82;100.00;101723.34;6294714;28;20330;-67
2023/08/10 01:41:10;;;;;;;2.83;1.63;;;;;;;13.81;100.00;101730.41;6303398;28;20048;-68
2023/08/10 01:44:12;;;;;;;9.80;1.30;;;;;;;13.80;100.00;101725.19;6302885;28;20349;-67
2023/08/10 01:47:20;;;;;;;1.58;1.10;;;;;;;13.78;100.00;101727.06;6303141;28;20049;-67
2023/08/10 01:50:25;;;;;;;3.78;1.25;;;;;;;13.73;100.00;101729.94;6303269;28;20049;-68
2023/08/10 01:53:30;;;;;;;3.85;1.63;;;;;;;13.71;100.00;101730.00;6302729;28;20126;-68
2023/08/10 01:56:34;;;;;;;3.90;1.10;;;;;;;13.69;100.00;101734.53;6302973;28;20349;-67
2023/08/10 01:59:35;;;;;;;3.17;1.45;;;;;;;13.73;100.00;101737.88;6302804;28;20056;-67
2023/08/10 02:02:36;;;;;;;4.32;1.77;;;;;;;13.77;100.00;101738.59;6302839;28;20044;-67
2023/08/10 02:05:38;;;;;;;2.90;1.50;;;;;;;13.82;100.00;101741.84;6302440;28;20071;-68
2023/08/10 02:08:39;;;;;;;5.20;1.40;;;;;;;13.86;100.00;101736.31;6302841;28;20044;-67
2023/08/10 02:11:42;;;;;;;2.95;1.50;;;;;;;13.85;100.00;101734.63;6302598;28;20436;-67
2023/08/10 02:14:44;;;;;;;1.90;1.35;;;;;;;13.80;100.00;101738.41;6302279;28;20048;-67
2023/08/10 02:17:45;;;;;;;3.53;1.73;;;;;;;13.76;100.00;101732.41;6302363;28;20048;-67
2023/08/10 02:20:46;;;;;;;2.30;1.50;;;;;;;13.67;100.00;101731.13;6302621;28;20055;-67
2023/08/10 02:23:48;;;;;;;5.03;1.58;;;;;;;13.55;100.00;101733.53;6302059;28;20051;-67
2023/08/10 02:26:51;;;;;;;2.97;1.63;;;;;;;13.42;100.00;101739.41;6301410;28;20194;-67
2023/08/10 02:29:52;;;;;;;6.22;1.73;;;;;;;13.40;100.00;101741.28;6302337;28;20045;-67
2023/08/10 02:32:54;;;;;;;6.07;1.80;;;;;;;13.37;100.00;101751.13;6301950;28;20044;-68
2023/08/10 02:35:55;;;;;;;3.88;1.83;;;;;;;13.39;100.00;101751.88;6301970;28;20052;-67
2023/08/10 02:38:56;;;;;;;4.05;1.95;;;;;;;13.41;100.00;101748.25;6301878;28;20048;-67
2023/08/10 02:41:59;;;;;;;3.38;1.63;;;;;;;13.50;100.00;101746.09;6302046;28;20053;-67
2023/08/10 02:45:00;;;;;;;4.30;1.35;;;;;;;13.49;100.00;101734.69;6301500;28;20044;-68
2023/08/10 02:48:05;;;;;;;3.15;1.70;;;;;;;13.45;100.00;101747.19;6300987;28;20090;-67
2023/08/10 02:51:07;;;;;;;8.55;2.00;;;;;;;13.36;100.00;101742.34;6300582;28;20052;-67
2023/08/10 02:54:08;;;;;;;5.30;1.50;;;;;;;13.29;100.00;101740.94;6291165;28;20048;-67
2023/08/10 02:57:11;;;;;;;2.10;1.52;;;;;;;13.21;100.00;101743.91;6293196;28;20045;-68
2023/08/10 03:00:13;;;;;;;2.97;1.52;;;;;;;13.19;100.00;101737.84;6301241;28;20428;-68
2023/08/10 03:03:14;;;;;;;5.25;2.00;;;;;;;13.16;100.00;101737.13;6285588;28;20045;-67
2023/08/10 03:06:16;;;;;;;4.60;2.03;;;;;;;13.00;100.00;101750.22;6300541;28;20059;-67
2023/08/10 03:09:17;;;;;;;7.68;2.00;;;;;;;13.01;100.00;101751.94;6301392;28;20055;-67
2023/08/10 03:12:20;;;;;;;5.25;1.95;;;;;;;13.04;100.00;101757.06;6301020;28;20075;-67
2023/08/10 03:15:22;;;;;;;2.22;1.90;;;;;;;13.06;100.00;101754.34;6292047;28;20049;-67
2023/08/10 03:18:23;;;;;;;2.83;1.52;;;;;;;13.11;100.00;101741.78;6301002;28;20048;-67
2023/08/10 03:21:25;;;;;;;2.65;1.48;;;;;;;13.18;100.00;101753.78;6300803;28;20045;-67
2023/08/10 03:24:26;;;;;;;3.75;1.92;;;;;;;13.26;100.00;101745.50;6300696;28;20448;-67
2023/08/10 03:27:29;;;;;;;7.43;2.00;;;;;;;13.19;100.00;101745.78;6300686;28;20095;-67
2023/08/10 03:30:32;;;;;;;5.03;2.20;;;;;;;13.20;100.00;101746.63;6300721;28;20160;-67
2023/08/10 03:33:34;;;;;;;4.50;2.25;;;;;;;13.15;100.00;101744.22;6300348;28;20433;-67
2023/08/10 03:36:35;;;;;;;3.45;1.45;;;;;;;13.12;100.00;101746.97;6300862;28;20052;-67
2023/08/10 03:39:37;;;;;;;4.78;1.92;;;;;;;13.11;100.00;101747.91;6300507;28;20048;-67
2023/08/10 03:42:39;;;;;;;6.93;2.28;;;;;;;13.24;100.00;101756.13;6287809;28;20079;-68
2023/08/10 03:45:41;;;;;;;3.28;2.05;;;;;;;13.27;100.00;101756.00;6300284;28;20076;-67
2023/08/10 03:48:42;;;;;;;7.07;1.80;;;;;;;13.26;100.00;101758.69;6300443;28;20044;-67
2023/08/10 03:51:44;;;;;;;5.35;1.95;;;;;;;13.31;100.00;101762.00;6297129;28;20049;-67
2023/08/10 03:54:45;;;;;;;2.72;1.90;;;;;;;13.31;100.00;101762.84;6286745;28;20044;-67
2023/08/10 03:57:48;;;;;;;4.93;1.92;;;;;;;13.29;100.00;101769.97;6300160;28;20458;-67
2023/08/10 04:00:50;;;;;;;1.73;1.35;;;;;;;13.30;100.00;101770.81;6300255;28;20056;-68
2023/08/10 04:03:52;;;;;;;6.43;2.13;;;;;;;13.27;100.00;101769.19;6300074;28;20511;-67
2023/08/10 04:06:53;;;;;;;2.70;1.60;;;;;;;13.26;100.00;101777.16;6300169;28;20071;-67
2023/08/10 04:09:54;;;;;;;4.18;2.00;;;;;;;13.11;100.00;101784.00;6300399;28;20056;-67
2023/08/10 04:12:57;;;;;;;2.78;1.80;;;;;;;13.05;100.00;101792.22;6299993;28;20056;-67
2023/08/10 04:15:58;;;;;;;4.43;2.22;;;;;;;12.95;100.00;101791.81;6299801;28;20445;-67
2023/08/10 04:19:00;;;;;;;5.15;2.53;;;;;;;12.94;100.00;101788.31;6299858;28;20361;-67
2023/08/10 04:22:01;;;;;;;4.10;2.17;;;;;;;12.98;100.00;101798.72;6300266;28;20049;-68
2023/08/10 04:25:03;;;;;;;10.10;2.13;;;;;;;12.89;100.00;101792.91;6299737;28;20049;-67
2023/08/10 04:28:07;;;;;;;6.40;2.03;;;;;;;12.77;100.00;101793.50;6299929;28;20049;-67
2023/08/10 04:31:08;;;;;;;3.65;2.35;;;;;;;12.81;100.00;101800.34;6300024;28;20060;-67
2023/08/10 04:34:09;;;;;;;6.88;2.30;;;;;;;12.73;100.00;101801.63;6299562;28;20055;-67
2023/08/10 04:37:11;;;;;;;5.07;2.05;;;;;;;12.84;100.00;101802.84;6299799;28;20051;-67
2023/08/10 04:40:13;;;;;;;6.90;2.08;;;;;;;12.82;100.00;101803.84;6299704;28;20052;-67
2023/08/10 04:43:16;;;;;;;5.95;2.33;;;;;;;12.87;100.00;101794.78;6299721;28;20052;-67
2023/08/10 04:46:17;;;;;;;5.80;2.40;;;;;;;12.87;100.00;101796.56;6299554;28;20048;-67
2023/08/10 04:49:19;;;;;;;5.93;2.50;;;;;;;12.95;100.00;101803.22;6299712;28;20112;-67
2023/08/10 04:52:20;;;;;;;4.78;2.33;;;;;;;12.89;100.00;101803.47;6291032;28;20057;-67
2023/08/10 04:55:22;;;;;;;12.18;3.08;;;;;;;12.94;100.00;101805.91;6285550;28;20084;-67
2023/08/10 04:58:24;;;;;;;4.53;2.58;;;;;;;12.79;100.00;101803.97;6264581;28;20130;-67
2023/08/10 05:01:26;;;;;;;5.70;2.65;;;;;;;12.85;100.00;101804.56;6272401;28;20049;-67
2023/08/10 05:04:27;;;;;;;7.18;3.83;;;;;;;12.75;100.00;101800.63;6290768;28;20361;-67
2023/08/10 05:07:28;;;;;;;4.88;2.30;;;;;;;12.71;100.00;101804.31;6299389;28;20075;-67
2023/08/10 05:10:30;;;;;;;5.53;2.92;;;;;;;12.88;100.00;101803.56;6261355;28;20037;-67
2023/08/10 05:13:33;;;;;;;6.80;2.35;;;;;;;12.96;100.00;101798.78;6254606;28;20057;-67
2023/08/10 05:16:35;;;;;;;4.45;2.42;;;;;;;13.07;100.00;101808.84;6275860;28;20365;-67
2023/08/10 05:19:36;;;;;;;4.45;2.33;;;;;;;13.08;100.00;101806.16;6278225;28;20429;-66
2023/08/10 05:22:38;;;;;;;8.98;2.60;;;;;;;13.12;100.00;101809.47;6278637;28;20354;-67
2023/08/10 05:25:40;;;;;;;7.75;2.65;;;;;;;13.10;100.00;101808.69;6272441;28;20048;-67
2023/08/10 05:28:42;;;;;;;5.85;2.83;;;;;;;13.05;100.00;101808.06;6273093;28;20041;-67
2023/08/10 05:31:44;;;;;;;4.57;2.97;;;;;;;13.01;100.00;101812.63;6278520;28;20049;-67
2023/08/10 05:34:45;;;;;;;6.15;3.25;;;;;;;13.00;100.00;101816.19;6278200;28;20055;-67
2023/08/10 05:37:47;;;;;;;7.65;3.00;;;;;;;12.98;100.00;101817.19;6278588;28;20053;-67
2023/08/10 05:40:48;;;;;;;8.23;3.20;;;;;;;12.75;100.00;101820.88;6278234;28;20437;-67
2023/08/10 05:43:51;;;;;;;7.97;3.40;;;;;;;12.81;100.00;101829.38;6278071;28;20050;-66
2023/08/10 05:46:52;;;;;;;7.35;3.63;;;;;;;12.68;100.00;101825.56;6278190;28;20056;-67
2023/08/10 05:49:53;;;;;;;8.15;3.42;;;;;;;12.79;100.00;101820.66;6271401;28;20041;-67
2023/08/10 05:52:55;;;;;;;5.47;3.05;;;;;;;12.91;100.00;101821.91;6264671;28;20350;-67
2023/08/10 05:55:57;;;;;;;4.75;3.00;;;;;;;13.05;100.00;101827.38;6266172;28;20128;-66
2023/08/10 05:59:01;;;;;;;4.35;3.30;;;;;;;13.00;100.00;101833.81;6277849;28;20056;-67
2023/08/10 06:02:02;;;;;;;8.35;3.28;;;;;;;13.13;100.00;101829.69;6277815;28;20523;-68
2023/08/10 06:05:06;;;;;;;7.95;2.80;;;;;;;13.20;100.00;101829.31;6277581;28;20064;-68
2023/08/10 06:08:08;;;;;;;8.20;3.30;;;;;;;13.17;100.00;101831.22;6277968;28;20052;-67
2023/08/10 06:11:11;;;;;;;4.03;2.55;;;;;;;13.23;100.00;101833.63;6262117;28;20308;-67
2023/08/10 06:14:13;;;;;;;9.13;2.90;;;;;;;13.29;100.00;101838.59;6265174;28;20051;-67
2023/08/10 06:17:15;;;;;;;5.78;3.00;;;;;;;13.03;100.00;101837.13;6252956;28;20048;-67
2023/08/10 06:20:21;;;;;;;6.75;3.42;;;;;;;13.15;100.00;101843.66;6252758;28;20053;-67
2023/08/10 06:23:23;;;;;;;5.93;3.13;;;;;;;13.21;100.00;101840.72;6251756;28;20132;-67
2023/08/10 06:26:24;;;;;;;9.35;3.97;;;;;;;13.26;100.00;101844.03;6252439;28;20350;-67
2023/08/10 06:29:27;;;;;;;4.15;3.00;;;;;;;13.35;100.00;101845.38;6252864;28;20045;-67
2023/08/10 06:32:28;;;;;;;4.60;3.10;;;;;;;13.38;100.00;101847.88;6252825;28;20049;-68
2023/08/10 06:35:35;;;;;;;9.85;3.17;;;;;;;13.36;100.00;101842.69;6252395;28;20049;-68
2023/08/10 06:38:36;;;;;;;5.10;3.35;;;;;;;13.35;100.00;101851.53;6252384;28;20050;-68
2023/08/10 06:41:37;;;;;;;7.43;2.90;;;;;;;13.43;100.00;101848.50;6252472;28;20056;-68
2023/08/10 06:44:40;;;;;;;8.65;4.03;;;;;;;13.50;100.00;101854.38;6251896;28;20412;-69
2023/08/10 06:47:43;;;;;;;5.57;3.45;;;;;;;13.56;100.00;101854.06;6252182;28;20053;-68
2023/08/10 06:50:44;;;;;;;9.77;3.25;;;;;;;13.57;100.00;101848.69;6252218;28;20094;-68
2023/08/10 06:53:46;;;;;;;8.02;3.33;;;;;;;13.69;100.00;101849.91;6275101;28;20048;-68
2023/08/10 06:56:47;;;;;;;7.57;3.63;;;;;;;13.73;100.00;101853.25;6288137;28;20051;-69
2023/08/10 06:59:50;;;;;;;6.65;3.13;;;;;;;13.75;100.00;101849.59;6293001;28;20044;-68
2023/08/10 07:02:53;;;;;;;6.82;3.10;;;;;;;13.80;100.00;101873.16;6301421;28;20048;-69
2023/08/10 07:05:55;;;;;;;9.07;3.13;;;;;;;13.80;100.00;101860.78;6301005;28;20057;-66
2023/08/10 07:08:57;;;;;;;6.70;3.08;;;;;;;13.88;100.00;101861.28;6301397;28;20138;-67
2023/08/10 07:11:58;;;;;;;5.72;3.03;;;;;;;13.97;100.00;101865.25;6301119;28;20056;-68
2023/08/10 07:15:01;;;;;;;4.15;2.80;;;;;;;14.10;100.00;101871.66;6300674;28;20360;-67
2023/08/10 07:18:03;;;;;;;6.10;2.75;;;;;;;14.25;100.00;101863.88;6290251;28;20057;-67
2023/08/10 07:21:04;;;;;;;9.23;2.72;;;;;;;14.35;100.00;101852.75;6298059;28;20040;-67
2023/08/10 07:24:06;;;;;;;5.57;2.50;;;;;;;14.42;100.00;101853.28;6300563;28;20049;-67
2023/08/10 07:27:08;;;;;;;7.10;3.05;;;;;;;14.47;100.00;101852.09;6300738;28;20063;-66
2023/08/10 07:30:13;;;;;;;6.43;2.53;;;;;;;14.51;100.00;101857.28;6281772;28;20171;-67
2023/08/10 07:33:14;;;;;;;9.10;2.80;;;;;;;14.48;100.00;101850.34;6276109;28;20445;-69
2023/08/10 07:36:16;;;;;;;14.32;4.15;;;;;;;14.55;100.00;101850.91;6287293;28;20076;-67
2023/08/10 07:39:17;;;;;;;7.72;2.70;;;;;;;14.61;100.00;101853.22;6275363;28;20045;-68
2023/08/10 07:42:18;;;;;;;9.40;2.65;;;;;;;14.69;100.00;101851.88;6275619;28;20052;-66
2023/08/10 07:45:21;;;;;;;2.80;2.15;;;;;;;14.75;100.00;101853.34;6282513;28;20048;-67
2023/08/10 07:48:22;;;;;;;9.02;2.60;;;;;;;14.83;100.00;101855.59;6279776;28;20131;-68
2023/08/10 07:51:24;;;;;;;4.57;1.83;;;;;;;14.88;100.00;101857.03;6283600;28;20048;-66
2023/08/10 07:54:26;;;;;;;2.78;1.77;;;;;;;14.93;100.00;101856.78;6283845;28;20053;-67
2023/08/10 07:57:27;;;;;;;4.28;1.77;;;;;;;14.95;100.00;101852.28;6300214;28;20433;-66
2023/08/10 08:00:30;;;;;;;3.53;1.58;;;;;;;15.03;100.00;101847.41;6300096;28;20051;-67
2023/08/10 08:03:31;;;;;;;2.03;1.05;;;;;;;15.08;100.00;101852.44;6292090;28;20434;-66
2023/08/10 08:06:35;;;;;;;4.68;1.88;;;;;;;15.14;100.00;101858.28;6289485;28;20052;-66
2023/08/10 08:09:36;;;;;;;2.55;1.08;;;;;;;15.22;100.00;101849.94;6290187;28;20048;-67
2023/08/10 08:12:38;;;;;;;3.30;1.33;;;;;;;15.30;100.00;101849.47;6293333;28;20052;-67
2023/08/10 08:15:43;;;;;;;3.38;0.90;;;;;;;15.37;100.00;101850.88;6299768;28;20072;-67
2023/08/10 08:18:47;;;;;;;2.03;0.82;;;;;;;15.42;100.00;101857.59;6300039;28;20127;-67
2023/08/10 08:21:48;;;;;;;4.30;1.05;;;;;;;15.44;100.00;101863.69;6292542;28;20040;-66
2023/08/10 08:24:51;;;;;;;2.60;0.73;;;;;;;15.50;100.00;101856.34;6291132;28;20056;-67
2023/08/10 08:27:52;;;;;;;2.00;0.90;;;;;;;15.57;100.00;101861.19;6299797;28;20394;-66
2023/08/10 08:30:55;;;;;;;3.15;1.05;;;;;;;15.67;100.00;101866.88;6299912;28;20044;-67
2023/08/10 08:33:56;;;;;;;2.17;0.90;;;;;;;15.70;100.00;101867.53;6299639;28;20044;-68
2023/08/10 08:36:58;;;;;;;5.05;2.15;;;;;;;15.66;100.00;101867.78;6299901;28;20495;-68
2023/08/10 08:39:59;;;;;;;3.65;1.10;;;;;;;15.67;100.00;101874.84;6278117;28;20437;-67
2023/08/10 08:43:04;;;;;;;2.50;0.82;;;;;;;15.77;100.00;101870.72;6291250;28;20059;-67
2023/08/10 08:46:07;;;;;;;1.95;1.00;;;;;;;15.94;100.00;101870.59;6302114;28;20060;-68
2023/08/10 08:49:09;;;;;;;2.67;0.70;;;;;;;16.09;100.00;101868.00;6304642;28;20056;-67
2023/08/10 08:52:11;;;;;;;5.30;1.50;;;;;;;16.17;100.00;101863.94;6304311;28;20045;-67
2023/08/10 08:55:13;;;;;;;2.85;0.55;;;;;;;16.34;100.00;101868.22;6288064;28;20075;-67
2023/08/10 08:58:16;;;;;;;4.85;1.27;;;;;;;16.31;100.00;101863.13;6279010;28;20044;-67
2023/08/10 09:01:20;;;;;;;3.92;0.88;;;;;;;16.34;100.00;101873.53;6279434;28;20099;-67
2023/08/10 09:04:21;;;;;;;1.15;0.70;;;;;;;16.36;100.00;101869.00;6269397;28;20052;-71
2023/08/10 09:07:22;;;;;;;14.07;0.95;;;;;;;16.35;100.00;101871.72;6263037;28;20052;-67
2023/08/10 09:10:24;;;;;;;4.40;0.90;;;;;;;16.22;100.00;101859.22;6293116;28;20044;-67
2023/08/10 09:13:25;;;;;;;0.80;0.70;;;;;;;16.18;100.00;101865.66;6276568;28;20472;-67
2023/08/10 09:16:28;;;;;;;5.25;1.13;;;;;;;16.14;100.00;101850.00;6277958;28;20053;-68
2023/08/10 09:19:30;;;;;;;4.03;0.63;;;;;;;16.20;100.00;101860.25;6276206;28;20388;-68
2023/08/10 09:22:33;;;;;;;7.45;0.70;;;;;;;16.24;100.00;101859.13;6289436;28;20460;-68
2023/08/10 09:25:37;;;;;;;1.55;0.82;;;;;;;16.17;100.00;101871.91;6292638;28;20400;-69
2023/08/10 09:28:39;;;;;;;1.30;0.68;;;;;;;16.14;100.00;101871.22;6289278;28;20049;-68
2023/08/10 09:31:43;;;;;;;4.82;0.85;;;;;;;16.08;100.00;101869.78;6295523;28;20353;-67
2023/08/10 09:34:46;;;;;;;2.17;0.80;;;;;;;16.15;100.00;101863.16;6294748;28;20133;-66
2023/08/10 09:37:48;;;;;;;3.35;0.90;;;;;;;16.34;100.00;101854.97;6293028;28;20063;-67
2023/08/10 09:40:49;;;;;;;2.75;0.70;;;;;;;16.43;100.00;101857.06;6288546;28;20116;-67
2023/08/10 09:43:51;;;;;;;2.70;0.90;;;;;;;16.42;100.00;101865.97;6289344;28;20356;-67
2023/08/10 09:46:58;;;;;;;0.90;0.75;;;;;;;16.56;100.00;101862.50;6292157;28;20049;-68
2023/08/10 09:50:02;;;;;;;1.05;0.60;;;;;;;16.68;100.00;101866.22;6299354;28;20060;-68
2023/08/10 09:53:04;;;;;;;2.10;0.55;;;;;;;16.76;100.00;101866.63;6298025;28;20076;-69
2023/08/10 09:56:07;;;;;;;2.58;0.70;;;;;;;16.76;100.00;101871.06;6291681;28;20049;-65
2023/08/10 09:59:08;;;;;;;2.15;0.52;;;;;;;16.69;100.00;101862.59;6288366;28;20049;-67
2023/08/10 10:02:11;;;;;;;3.42;0.80;;;;;;;16.72;100.00;101867.78;6290859;28;20132;-65
2023/08/10 10:05:13;;;;;;;1.98;0.80;;;;;;;16.86;100.00;101865.13;6300416;28;20049;-68
2023/08/10 10:08:15;;;;;;;1.25;0.60;;;;;;;16.94;100.00;101859.31;6292819;28;20055;-65
2023/08/10 10:11:17;;;;;;;0.85;0.80;;;;;;;17.05;100.00;101858.66;6302497;28;20049;-66
2023/08/10 10:14:20;;;;;;;3.08;1.70;;;;;;;17.18;100.00;101872.88;6294550;28;20051;-68
2023/08/10 10:17:23;;;;;;;2.38;0.80;;;;;;;17.08;100.00;101858.44;6277732;28;20060;-66
2023/08/10 10:20:25;;;;;;;1.27;0.57;;;;;;;16.99;100.00;101866.06;6277650;28;20045;-65
2023/08/10 10:23:30;;;;;;;1.17;0.73;;;;;;;16.97;100.00;101861.78;6277409;28;20045;-66
2023/08/10 10:26:31;;;;;;;2.47;0.70;;;;;;;17.01;100.00;101858.00;6277919;28;20056;-66
2023/08/10 10:29:37;;;;;;;2.60;1.38;;;;;;;17.12;100.00;101865.28;6277448;28;20049;-66
2023/08/10 10:32:44;;;;;;;1.73;0.77;;;;;;;17.22;100.00;101859.28;6285225;28;20368;-66
2023/08/10 10:36:05;;;;;;;2.05;0.80;;;;;;;17.45;100.00;101856.97;6296035;28;20059;-67
2023/08/10 10:39:11;;;;;;;1.13;0.50;;;;;;;17.60;100.00;101849.81;6285750;28;20060;-67
2023/08/10 10:42:13;;;;;;;2.45;0.80;;;;;;;17.72;100.00;101852.53;6277456;28;20171;-69
2023/08/10 10:45:15;;;;;;;1.67;0.47;;;;;;;17.72;100.00;101857.00;6284657;28;20446;-68
2023/08/10 10:48:33;;;;;;;1.75;0.60;;;;;;;17.63;100.00;101847.81;6300034;28;20463;-68
2023/08/10 10:51:48;;;;;;;9.88;0.98;;;;;;;17.66;100.00;101849.38;6301867;28;20045;-68
2023/08/10 10:54:51;;;;;;;1.77;0.73;;;;;;;17.73;100.00;101848.06;6301270;28;20052;-68
2023/08/10 10:57:53;;;;;;;1.80;0.70;;;;;;;17.82;100.00;101843.97;6301628;28;20059;-67
2023/08/10 11:00:55;;;;;;;3.63;1.15;;;;;;;17.97;100.00;101832.28;6301377;28;20048;-67
2023/08/10 11:03:58;;;;;;;2.50;0.70;;;;;;;17.98;100.00;101836.66;6282342;28;20048;-67
2023/08/10 11:07:00;;;;;;;2.75;0.77;;;;;;;17.90;100.00;101836.34;6276527;28;20052;-67
2023/08/10 11:10:06;;;;;;;1.30;0.70;;;;;;;17.81;100.00;101834.28;6275814;28;20045;-67
2023/08/10 11:13:09;;;;;;;1.17;0.70;;;;;;;17.87;100.00;101837.38;6276149;28;20056;-69
2023/08/10 11:16:10;;;;;;;1.30;0.68;;;;;;;17.90;100.00;101833.69;6275978;28;20186;-68
2023/08/10 11:19:14;;;;;;;2.10;0.80;;;;;;;17.91;100.00;101827.41;6276312;28;20053;-67
2023/08/10 11:22:17;;;;;;;1.67;1.13;;;;;;;17.98;100.00;101832.19;6275996;28;20056;-67
2023/08/10 11:25:20;;;;;;;3.47;0.85;;;;;;;17.92;100.00;101826.44;6275724;28;20354;-67
2023/08/10 11:28:22;;;;;;;3.17;1.27;;;;;;;17.91;100.00;101824.72;6275933;28;20076;-68
2023/08/10 11:31:23;;;;;;;1.17;0.80;;;;;;;17.96;100.00;101828.78;6276104;28;20041;-68
2023/08/10 11:34:26;;;;;;;1.30;0.60;;;;;;;18.02;100.00;101824.84;6275543;28;20052;-66
2023/08/10 11:37:31;;;;;;;5.15;0.98;;;;;;;18.31;100.00;101816.72;6278608;28;20045;-67
2023/08/10 11:40:33;;;;;;;4.53;0.98;;;;;;;18.33;100.00;101814.78;6296055;28;20055;-68
2023/08/10 11:43:34;;;;;;;2.47;0.80;;;;;;;18.57;100.00;101817.53;6283424;28;20052;-67
2023/08/10 11:46:36;;;;;;;1.85;0.68;;;;;;;18.64;100.00;101808.19;6293297;28;20056;-67
2023/08/10 11:49:39;;;;;;;9.40;1.35;;;;;;;19.05;100.00;101802.59;6300343;28;20055;-69
2023/08/10 11:52:41;;;;;;;3.15;0.60;;;;;;;19.55;100.00;101810.53;6283712;28;20047;-69
2023/08/10 11:55:44;;;;;;;2.00;0.60;;;;;;;19.58;100.00;101803.16;6285152;28;20048;-69
2023/08/10 11:58:46;;;;;;;2.22;0.80;;;;;;;19.74;100.00;101802.88;6300484;28;20055;-69
2023/08/10 12:01:52;;;;;;;1.48;0.70;;;;;;;19.81;100.00;101806.78;6299118;28;20131;-69
2023/08/10 12:05:01;;;;;;;1.88;0.60;;;;;;;19.63;100.00;101798.34;6275243;28;20044;-69
2023/08/10 12:08:05;;;;;;;1.20;0.60;;;;;;;19.28;100.00;101803.59;6275356;28;20095;-69
2023/08/10 12:11:07;;;;;;;3.10;1.20;;;;;;;19.10;100.00;101811.09;6275385;28;20049;-68
2023/08/10 12:14:09;;;;;;;1.60;0.50;;;;;;;18.91;100.00;101803.59;6274771;28;20057;-69
2023/08/10 12:17:10;;;;;;;1.40;0.60;;;;;;;18.69;100.00;101801.59;6275318;28;20052;-68
2023/08/10 12:20:14;;;;;;;4.78;1.30;;;;;;;18.61;100.00;101801.25;6276270;28;20056;-67
2023/08/10 12:23:17;;;;;;;2.67;0.60;;;;;;;18.93;100.00;101800.81;6286026;28;20055;-68
2023/08/10 12:26:18;;;;;;;2.90;0.55;;;;;;;19.55;100.00;101797.19;6290695;28;20068;-67
2023/08/10 12:29:20;;;;;;;1.27;0.68;;;;;;;19.57;100.00;101798.75;6295141;28;20053;-68
2023/08/10 12:32:22;;;;;;;1.75;0.70;;;;;;;19.30;100.00;101790.13;6305055;28;20049;-69
2023/08/10 12:35:26;;;;;;;1.45;0.40;;;;;;;19.10;100.00;101792.47;6304559;28;20056;-70
2023/08/10 12:38:27;;;;;;;1.40;0.45;;;;;;;19.05;100.00;101794.59;6294045;28;20056;-70
2023/08/10 12:41:29;;;;;;;1.55;0.50;;;;;;;19.51;100.00;101789.41;6287355;28;20044;-70
2023/08/10 12:44:30;;;;;;;0.82;0.70;;;;;;;19.66;100.00;101786.59;6285096;28;20049;-71
2023/08/10 12:47:32;;;;;;;0.70;0.70;;;;;;;19.51;100.00;101794.75;6295348;28;20051;-69
2023/08/10 12:50:35;;;;;;;1.60;0.68;;;;;;;19.50;100.00;101790.38;6289084;28;20045;-68
2023/08/10 12:53:36;;;;;;;1.88;0.52;;;;;;;19.51;100.00;101786.75;6284452;28;20047;-69
2023/08/10 12:56:38;;;;;;;2.10;0.77;;;;;;;19.41;100.00;101791.06;6288080;28;20041;-70
2023/08/10 12:59:39;;;;;;;1.20;0.52;;;;;;;19.39;100.00;101790.31;6286803;28;20044;-70
2023/08/10 13:02:41;;;;;;;1.17;0.50;;;;;;;19.33;100.00;101784.59;6279927;28;20417;-70
2023/08/10 13:05:44;;;;;;;1.77;0.50;;;;;;;19.50;100.00;101786.88;6288765;28;20052;-68
2023/08/10 13:08:48;;;;;;;1.63;0.57;;;;;;;20.04;100.00;101786.38;6287645;28;20460;-69
2023/08/10 13:11:49;;;;;;;0.63;0.50;;;;;;;20.00;100.00;101788.41;6285333;28;20393;-69
2023/08/10 13:14:51;;;;;;;3.50;0.60;;;;;;;20.15;100.00;101778.38;6313482;23;20053;-73
2023/08/10 13:17:52;;;;;;;2.85;0.55;;;;;;;19.89;100.00;101785.69;6287577;28;20362;-73
2023/08/10 13:20:55;;;;;;;4.07;0.77;;;;;;;19.64;100.00;101781.38;6299548;28;20044;-72
2023/08/10 13:23:56;;;;;;;1.95;0.65;;;;;;;19.69;100.00;101789.03;6291481;28;20052;-72
2023/08/10 13:26:58;;;;;;;3.85;0.77;;;;;;;19.86;100.00;101791.28;6299143;28;20429;-71
2023/08/10 13:29:59;;;;;;;5.78;0.88;;;;;;;20.10;100.00;101780.53;6286777;28;20071;-72
2023/08/10 13:33:01;;;;;;;1.13;0.55;;;;;;;20.51;100.00;101785.34;6294278;28;20045;-73
2023/08/10 13:36:04;;;;;;;3.63;0.90;;;;;;;20.81;100.00;101794.59;6291133;28;20101;-72
2023/08/10 13:39:06;;;;;;;0.50;0.50;;;;;;;21.04;76.12;101800.75;6295328;28;20338;-73
2023/08/10 13:42:08;;;;;;;0.77;0.60;;;;;;;21.18;74.72;101796.97;6290959;28;20052;-73
2023/08/10 13:45:10;;;;;;;3.42;0.80;;;;;;;21.17;71.68;101796.13;6291394;28;20040;-72
2023/08/10 13:48:11;;;;;;;3.97;0.55;;;;;;;21.26;68.02;101795.38;6294475;28;20041;-73
2023/08/10 13:51:14;;;;;;;3.63;0.70;;;;;;;21.53;67.59;101775.38;6285115;28;20049;-73
2023/08/10 13:54:15;;;;;;;2.53;0.65;;;;;;;21.49;61.10;101787.31;6291321;28;20052;-73
2023/08/10 13:57:17;;;;;;;4.13;1.35;;;;;;;20.88;63.24;101784.25;6292524;28;20048;-73